Time;durP1;ratioP1;P1;durP2;ratioP2;P2;SDS_P1;SDS_P2;PMS_P1;PMS_P2;Temp;Humidity;BMP_temperature;BMP_pressure;BME280_temperature;BME280_humidity;BME280_pressure;Samples;Min_cycle;Max_cycle;Signal;HPM_P1;HPM_P2
2021/10/23 00:00:29;;;;;;;8.03;2.67;;;;;;;6.07;81.29;100938.38;5062354;28;20472;-77
2021/10/23 00:02:56;;;;;;;11.80;3.30;;;;;;;6.12;81.34;100944.25;5074197;28;21052;-77
2021/10/23 00:05:22;;;;;;;12.77;3.13;;;;;;;6.20;81.04;100940.19;5060499;28;20505;-77
2021/10/23 00:07:49;;;;;;;10.13;3.77;;;;;;;6.29;80.39;100945.88;5066777;28;20474;-76
2021/10/23 00:10:16;;;;;;;9.43;2.97;;;;;;;6.15;80.75;100949.38;5074851;28;20564;-76
2021/10/23 00:12:42;;;;;;;10.83;3.80;;;;;;;6.09;81.12;100947.09;5060898;28;20554;-76
2021/10/23 00:15:11;;;;;;;10.57;2.80;;;;;;;6.13;80.93;100952.13;5072732;28;20492;-76
2021/10/23 00:17:37;;;;;;;7.90;2.97;;;;;;;6.14;80.88;100955.63;5060306;28;21172;-77
2021/10/23 00:20:05;;;;;;;7.10;2.73;;;;;;;6.00;80.83;100969.75;5060715;28;20508;-76
2021/10/23 00:22:32;;;;;;;14.33;3.93;;;;;;;6.10;80.79;100967.41;5061084;28;20488;-76
2021/10/23 00:25:00;;;;;;;9.77;3.40;;;;;;;6.02;81.33;100957.22;5078386;28;20440;-76
2021/10/23 00:27:27;;;;;;;10.43;3.50;;;;;;;5.87;81.88;100961.66;5080962;28;20996;-76
2021/10/23 00:29:53;;;;;;;12.47;4.07;;;;;;;5.97;81.47;100967.28;5081224;28;20451;-77
2021/10/23 00:32:22;;;;;;;13.23;3.60;;;;;;;6.03;81.18;100966.91;5065162;28;20480;-77
2021/10/23 00:34:49;;;;;;;12.73;2.97;;;;;;;6.12;80.68;100974.31;5068684;28;20445;-78
2021/10/23 00:37:15;;;;;;;9.03;3.33;;;;;;;6.12;80.43;100981.44;5064980;28;20516;-76
2021/10/23 00:39:42;;;;;;;11.20;2.87;;;;;;;6.00;80.87;100978.56;5084048;28;20451;-76
2021/10/23 00:42:08;;;;;;;12.33;2.93;;;;;;;6.08;80.87;100979.91;5081809;28;20543;-76
2021/10/23 00:44:37;;;;;;;6.87;2.90;;;;;;;6.02;80.90;100984.66;5074470;28;20479;-76
2021/10/23 00:47:05;;;;;;;9.20;3.50;;;;;;;6.02;80.94;100979.34;5071360;28;20508;-76
2021/10/23 00:49:33;;;;;;;13.80;3.37;;;;;;;5.94;81.02;100983.38;5065593;28;20450;-76
2021/10/23 00:52:02;;;;;;;7.87;3.60;;;;;;;5.96;81.10;100984.16;5064372;28;20472;-76
2021/10/23 00:54:30;;;;;;;7.40;3.80;;;;;;;5.96;81.21;100990.31;5066500;28;20500;-76
2021/10/23 00:56:58;;;;;;;8.93;3.27;;;;;;;5.88;81.54;100989.03;5051917;28;20498;-77
2021/10/23 00:59:25;;;;;;;12.67;3.43;;;;;;;5.90;81.47;100988.00;5064645;28;20463;-76
2021/10/23 01:01:52;;;;;;;11.13;3.87;;;;;;;5.88;81.47;100983.72;5077488;28;20508;-76
2021/10/23 01:04:21;;;;;;;12.33;3.40;;;;;;;5.87;81.31;100993.50;5075884;28;20477;-76
2021/10/23 01:06:49;;;;;;;9.43;3.03;;;;;;;5.87;81.59;100990.84;5083862;28;20510;-76
2021/10/23 01:09:16;;;;;;;9.93;3.63;;;;;;;5.88;81.63;100989.03;5070696;28;20468;-76
2021/10/23 01:11:43;;;;;;;12.27;3.60;;;;;;;5.77;81.85;100987.03;5078009;28;20505;-76
2021/10/23 01:14:13;;;;;;;11.23;4.13;;;;;;;5.84;81.84;100993.69;5063453;28;20575;-76
2021/10/23 01:16:40;;;;;;;8.13;4.73;;;;;;;5.83;81.91;100998.16;5073923;28;20478;-76
2021/10/23 01:19:08;;;;;;;18.27;3.90;;;;;;;5.89;81.38;100996.06;5084983;28;20428;-76
2021/10/23 01:21:36;;;;;;;11.07;3.77;;;;;;;5.83;81.24;100990.19;5083675;28;20491;-76
2021/10/23 01:24:03;;;;;;;12.60;3.90;;;;;;;5.73;81.49;100989.03;5083685;28;20483;-77
2021/10/23 01:26:30;;;;;;;10.43;3.70;;;;;;;5.79;81.66;101001.06;5083942;28;20498;-77
2021/10/23 01:28:56;;;;;;;14.60;5.03;;;;;;;5.82;81.38;100996.44;5080688;28;21221;-76
2021/10/23 01:31:23;;;;;;;11.80;4.37;;;;;;;5.82;81.34;100987.63;5082034;28;20499;-77
2021/10/23 01:33:50;;;;;;;11.37;4.33;;;;;;;5.84;81.24;100985.72;5068450;28;20891;-77
2021/10/23 01:36:18;;;;;;;12.17;4.83;;;;;;;5.81;81.13;100989.41;5079612;28;20503;-77
2021/10/23 01:38:47;;;;;;;13.03;3.40;;;;;;;5.87;81.09;100985.53;5084290;28;20991;-77
2021/10/23 01:41:14;;;;;;;13.30;5.53;;;;;;;5.89;81.14;100990.75;5078105;28;20505;-77
2021/10/23 01:43:41;;;;;;;13.80;4.70;;;;;;;5.85;81.50;100984.78;5063917;28;20480;-77
2021/10/23 01:46:08;;;;;;;17.17;5.83;;;;;;;5.84;81.21;100985.72;5063367;28;20507;-77
2021/10/23 01:48:36;;;;;;;17.63;5.87;;;;;;;5.82;81.58;100995.59;5064520;28;20453;-76
2021/10/23 01:51:03;;;;;;;15.03;5.20;;;;;;;5.89;81.60;100999.56;5071809;28;20500;-77
2021/10/23 01:53:32;;;;;;;15.10;5.90;;;;;;;5.91;81.23;100997.66;5066868;28;20448;-76
2021/10/23 01:56:00;;;;;;;11.67;6.70;;;;;;;5.83;81.47;101005.22;5083176;28;20486;-77
2021/10/23 01:58:27;;;;;;;10.73;5.33;;;;;;;5.84;81.46;101015.75;5083321;28;21035;-77
2021/10/23 02:00:53;;;;;;;14.87;5.30;;;;;;;5.81;81.49;101015.09;5077875;28;20909;-76
2021/10/23 02:03:20;;;;;;;16.00;5.60;;;;;;;5.80;81.53;101016.91;5054833;28;20483;-77
2021/10/23 02:05:47;;;;;;;13.40;6.53;;;;;;;5.64;82.49;101008.13;5078955;28;20544;-76
2021/10/23 02:08:13;;;;;;;16.83;6.63;;;;;;;5.69;82.26;101002.56;5063884;28;20453;-77
2021/10/23 02:10:40;;;;;;;10.40;5.43;;;;;;;5.63;82.74;101015.22;5070318;28;20515;-76
2021/10/23 02:13:08;;;;;;;16.23;6.20;;;;;;;5.77;82.51;101022.38;5082583;28;20509;-77
2021/10/23 02:15:35;;;;;;;20.07;6.90;;;;;;;5.78;82.66;101017.91;5081899;28;20575;-77
2021/10/23 02:18:01;;;;;;;16.80;6.50;;;;;;;5.76;82.66;101018.00;5083724;28;20467;-76
2021/10/23 02:20:33;;;;;;;22.30;6.37;;;;;;;5.91;82.16;101029.53;5082660;28;20551;-77
2021/10/23 02:23:00;;;;;;;15.03;7.13;;;;;;;5.79;82.37;101027.59;5082374;28;20467;-76
2021/10/23 02:25:27;;;;;;;17.13;6.40;;;;;;;5.73;82.65;101025.28;5063304;28;20460;-77
2021/10/23 02:27:53;;;;;;;11.43;6.77;;;;;;;5.81;82.06;101031.00;5063208;28;20452;-77
2021/10/23 02:30:21;;;;;;;15.97;6.30;;;;;;;5.75;82.26;101026.09;5062294;28;21016;-77
2021/10/23 02:32:48;;;;;;;13.47;5.67;;;;;;;5.76;82.16;101033.91;5064917;28;20473;-77
2021/10/23 02:35:15;;;;;;;12.27;6.20;;;;;;;5.84;81.78;101026.38;5075825;28;20473;-77
2021/10/23 02:37:41;;;;;;;15.00;6.67;;;;;;;5.67;82.86;101031.81;5079729;28;20701;-77
2021/10/23 02:40:09;;;;;;;17.30;6.80;;;;;;;5.77;82.38;101040.94;5082070;28;20979;-77
2021/10/23 02:42:36;;;;;;;12.50;7.20;;;;;;;5.81;82.14;101038.97;5079523;28;20475;-76
2021/10/23 02:45:03;;;;;;;17.50;7.07;;;;;;;5.75;82.48;101056.13;5066635;28;20523;-76
2021/10/23 02:47:31;;;;;;;26.47;7.60;;;;;;;5.85;82.33;101056.44;5078445;28;20486;-76
2021/10/23 02:49:57;;;;;;;12.50;6.23;;;;;;;5.93;82.15;101062.13;5077918;28;20555;-76
2021/10/23 02:52:25;;;;;;;15.53;7.80;;;;;;;6.11;81.98;101077.94;5075324;28;20503;-76
2021/10/23 02:54:52;;;;;;;18.33;7.80;;;;;;;6.24;81.56;101080.72;5081959;28;20870;-76
2021/10/23 02:57:18;;;;;;;14.03;6.67;;;;;;;6.21;81.61;101072.00;5080434;28;20492;-76
2021/10/23 02:59:45;;;;;;;20.37;6.73;;;;;;;6.32;81.20;101076.66;5081529;28;20469;-76
2021/10/23 03:02:11;;;;;;;16.73;6.30;;;;;;;6.17;81.63;101075.78;5062768;28;20488;-76
2021/10/23 03:04:39;;;;;;;14.93;6.30;;;;;;;6.32;81.29;101073.13;5071032;28;20471;-76
2021/10/23 03:07:06;;;;;;;12.53;5.90;;;;;;;6.42;80.76;101068.97;5062298;28;20534;-76
2021/10/23 03:09:32;;;;;;;14.10;6.90;;;;;;;6.39;80.91;101079.81;5066859;28;20456;-76
2021/10/23 03:11:59;;;;;;;16.13;6.53;;;;;;;6.49;80.61;101074.78;5079402;28;20492;-75
2021/10/23 03:14:26;;;;;;;20.70;7.23;;;;;;;6.54;80.37;101072.69;5066241;28;20514;-75
2021/10/23 03:16:52;;;;;;;20.63;7.50;;;;;;;6.41;80.55;101065.47;5070068;28;20497;-75
2021/10/23 03:19:19;;;;;;;13.20;6.37;;;;;;;6.53;80.13;101073.66;5062926;28;20457;-75
2021/10/23 03:21:47;;;;;;;16.37;6.50;;;;;;;6.64;79.96;101078.28;5062737;28;20508;-75
2021/10/23 03:24:14;;;;;;;12.27;5.90;;;;;;;6.63;79.46;101074.81;5081547;28;21047;-75
2021/10/23 03:26:40;;;;;;;14.13;6.27;;;;;;;6.45;80.04;101074.09;5081670;28;20495;-77
2021/10/23 03:29:07;;;;;;;15.43;5.10;;;;;;;6.51;79.79;101075.53;5080782;28;20444;-76
2021/10/23 03:31:33;;;;;;;23.20;6.07;;;;;;;6.48;79.98;101079.25;5078410;28;20492;-75
2021/10/23 03:34:00;;;;;;;16.90;6.30;;;;;;;6.54;79.68;101076.19;5073979;28;20459;-75
2021/10/23 03:36:27;;;;;;;13.63;5.13;;;;;;;6.52;80.02;101077.25;5079869;28;20510;-75
2021/10/23 03:38:55;;;;;;;13.03;5.53;;;;;;;6.59;80.03;101084.72;5065898;28;20468;-76
2021/10/23 03:41:21;;;;;;;12.87;5.50;;;;;;;6.64;79.43;101084.47;5077517;28;20557;-75
2021/10/23 03:43:48;;;;;;;14.77;6.33;;;;;;;6.58;79.70;101084.84;5081136;28;20480;-74
2021/10/23 03:46:15;;;;;;;13.57;5.97;;;;;;;6.72;79.46;101094.63;5075784;28;21019;-75
2021/10/23 03:48:41;;;;;;;12.63;4.70;;;;;;;6.73;79.31;101093.66;5064480;28;20465;-75
2021/10/23 03:51:08;;;;;;;22.67;5.80;;;;;;;6.61;79.84;101079.31;5078940;28;20561;-75
2021/10/23 03:53:34;;;;;;;16.07;5.60;;;;;;;6.57;79.98;101077.81;5069475;28;20472;-75
2021/10/23 03:56:02;;;;;;;21.87;6.23;;;;;;;6.54;79.69;101072.69;5062275;28;20532;-75
2021/10/23 03:58:29;;;;;;;11.53;4.50;;;;;;;6.63;79.74;101076.56;5062111;28;20448;-75
2021/10/23 04:00:56;;;;;;;11.17;5.03;;;;;;;6.63;79.96;101076.56;5067826;28;20515;-76
2021/10/23 04:03:23;;;;;;;15.57;5.50;;;;;;;6.76;79.38;101077.53;5064425;28;20453;-75
2021/10/23 04:05:49;;;;;;;13.00;4.80;;;;;;;6.71;79.09;101080.47;5061731;28;20469;-75
2021/10/23 04:08:16;;;;;;;15.67;5.93;;;;;;;6.84;79.24;101088.56;5073482;28;20547;-76
2021/10/23 04:10:42;;;;;;;20.87;5.77;;;;;;;6.70;79.48;101084.09;5070087;28;20497;-75
2021/10/23 04:13:10;;;;;;;12.33;4.93;;;;;;;6.66;79.60;101084.38;5063416;28;20485;-75
2021/10/23 04:15:37;;;;;;;13.73;5.73;;;;;;;6.76;79.23;101098.78;5065801;28;20528;-75
2021/10/23 04:18:04;;;;;;;9.17;4.40;;;;;;;6.75;79.03;101105.91;5064733;28;20512;-76
2021/10/23 04:20:30;;;;;;;18.37;6.20;;;;;;;6.64;79.14;101104.88;5072725;28;20546;-76
2021/10/23 04:22:57;;;;;;;12.97;5.83;;;;;;;6.64;79.20;101104.88;5065877;28;20511;-76
2021/10/23 04:25:23;;;;;;;15.10;6.43;;;;;;;6.43;80.24;101101.72;5065281;28;20518;-76
2021/10/23 04:27:50;;;;;;;13.00;6.43;;;;;;;6.36;80.34;101101.22;5065659;28;20512;-75
2021/10/23 04:30:18;;;;;;;16.43;7.93;;;;;;;6.38;80.14;101116.13;5071756;28;20491;-76
2021/10/23 04:32:45;;;;;;;15.00;8.30;;;;;;;6.40;80.45;101118.69;5077595;28;20460;-76
2021/10/23 04:35:11;;;;;;;23.40;7.53;;;;;;;6.27;80.81;101118.56;5070692;28;20531;-76
2021/10/23 04:37:40;;;;;;;10.80;7.00;;;;;;;6.28;81.05;101117.63;5079352;28;20816;-76
2021/10/23 04:40:08;;;;;;;17.10;8.30;;;;;;;6.33;80.96;101114.69;5077868;28;20913;-76
2021/10/23 04:42:35;;;;;;;14.97;7.80;;;;;;;6.10;81.53;101114.25;5071503;28;20500;-76
2021/10/23 04:45:01;;;;;;;15.13;7.83;;;;;;;6.33;80.91;101112.88;5084155;28;20440;-76
2021/10/23 04:47:29;;;;;;;20.53;8.13;;;;;;;6.35;80.62;101105.69;5084490;28;20518;-75
2021/10/23 04:49:56;;;;;;;15.00;8.07;;;;;;;6.20;80.96;101110.13;5078589;28;20448;-76
2021/10/23 04:52:23;;;;;;;18.60;7.93;;;;;;;6.41;80.50;101113.28;5068261;28;20511;-76
2021/10/23 04:54:49;;;;;;;23.30;8.43;;;;;;;6.38;80.50;101125.91;5080258;28;21072;-76
2021/10/23 04:57:17;;;;;;;21.07;7.73;;;;;;;6.35;80.75;101126.06;5083869;28;20510;-76
2021/10/23 04:59:43;;;;;;;16.70;9.43;;;;;;;6.34;80.31;101129.69;5072644;28;20531;-75
2021/10/23 05:02:10;;;;;;;29.60;9.90;;;;;;;6.29;80.63;101126.44;5073211;28;20568;-76
2021/10/23 05:04:38;;;;;;;21.17;8.83;;;;;;;6.15;81.01;101137.91;5065989;28;20584;-76
2021/10/23 05:07:04;;;;;;;15.33;9.00;;;;;;;6.15;81.54;101136.09;5064068;28;20506;-75
2021/10/23 05:09:31;;;;;;;17.63;9.50;;;;;;;6.30;81.58;101147.63;5082511;28;20440;-76
2021/10/23 05:11:57;;;;;;;16.30;9.70;;;;;;;6.14;82.43;101138.81;5072142;28;20539;-75
2021/10/23 05:14:24;;;;;;;19.03;9.77;;;;;;;6.06;82.75;101133.09;5082293;28;20535;-75
2021/10/23 05:16:51;;;;;;;16.13;9.03;;;;;;;5.97;83.02;101126.53;5049862;28;20579;-75
2021/10/23 05:19:17;;;;;;;22.80;10.23;;;;;;;6.08;82.72;101123.28;5083224;28;20480;-75
2021/10/23 05:21:45;;;;;;;18.97;9.33;;;;;;;6.14;82.24;101130.84;5065455;28;21052;-75
2021/10/23 05:24:12;;;;;;;17.33;8.77;;;;;;;6.10;82.59;101124.88;5074102;28;20522;-76
2021/10/23 05:26:38;;;;;;;17.93;10.00;;;;;;;6.13;82.41;101123.84;5083056;28;20562;-75
2021/10/23 05:29:05;;;;;;;21.23;10.10;;;;;;;6.03;82.55;101104.94;5075172;28;20938;-76
2021/10/23 05:31:32;;;;;;;19.37;10.93;;;;;;;5.97;82.67;101107.94;5068979;28;20543;-74
2021/10/23 05:33:58;;;;;;;19.53;10.13;;;;;;;5.96;82.60;101116.88;5066035;28;20452;-75
2021/10/23 05:36:25;;;;;;;21.50;10.53;;;;;;;6.01;82.29;101120.97;5069961;28;20509;-75
2021/10/23 05:38:53;;;;;;;21.37;11.40;;;;;;;5.98;82.28;101109.69;5076563;28;20554;-75
2021/10/23 05:41:19;;;;;;;22.57;10.50;;;;;;;6.02;81.91;101112.06;5074461;28;21064;-81
2021/10/23 05:43:46;;;;;;;12.57;8.63;;;;;;;5.95;81.54;101115.13;5064179;28;20447;-80
2021/10/23 05:46:13;;;;;;;19.30;10.23;;;;;;;5.84;81.64;101119.25;5067442;28;20484;-80
2021/10/23 05:48:40;;;;;;;28.17;10.57;;;;;;;5.77;82.20;101131.16;5064046;28;21030;-79
2021/10/23 05:51:06;;;;;;;16.57;10.60;;;;;;;5.69;81.76;101136.06;5063460;28;20464;-79
2021/10/23 05:53:33;;;;;;;18.47;10.47;;;;;;;5.69;82.06;101137.84;5063399;28;20468;-75
2021/10/23 05:56:01;;;;;;;22.13;10.90;;;;;;;5.69;82.06;101151.97;5068796;28;20571;-79
2021/10/23 05:58:30;;;;;;;19.73;10.80;;;;;;;5.61;82.29;101155.06;5064040;28;20517;-81
2021/10/23 06:01:00;;;;;;;18.60;11.77;;;;;;;5.59;81.98;101151.66;5063054;28;20473;-80
2021/10/23 06:03:29;;;;;;;20.17;12.40;;;;;;;5.57;82.10;101158.84;5082089;28;20486;-78
2021/10/23 06:05:56;;;;;;;20.20;11.57;;;;;;;5.52;82.76;101160.91;5083408;28;20476;-80
2021/10/23 06:08:22;;;;;;;21.47;12.83;;;;;;;5.65;82.43;101159.25;5083640;28;20888;-75
2021/10/23 06:10:49;;;;;;;25.57;11.50;;;;;;;5.62;82.34;101159.44;5064289;28;20560;-78
2021/10/23 06:13:21;;;;;;;19.50;11.00;;;;;;;5.61;82.46;101162.19;5062629;28;20570;-76
2021/10/23 06:15:47;;;;;;;25.57;14.47;;;;;;;5.66;82.83;101173.38;5062372;28;21009;-77
2021/10/23 06:18:14;;;;;;;27.70;13.87;;;;;;;5.72;82.36;101174.84;5074119;28;20508;-76
2021/10/23 06:20:41;;;;;;;27.83;13.73;;;;;;;5.72;82.28;101173.03;5063464;28;20488;-75
2021/10/23 06:23:07;;;;;;;23.10;14.00;;;;;;;5.64;82.12;101173.47;5063111;28;20477;-76
2021/10/23 06:25:34;;;;;;;24.07;14.20;;;;;;;5.64;82.94;101177.91;5063098;28;20592;-76
2021/10/23 06:28:01;;;;;;;29.07;18.00;;;;;;;5.59;83.14;101172.88;5063669;28;20433;-76
2021/10/23 06:30:29;;;;;;;23.03;15.00;;;;;;;5.77;83.12;101189.53;5062301;28;20468;-79
2021/10/23 06:32:57;;;;;;;28.90;16.20;;;;;;;5.74;82.88;101186.22;5077895;28;20504;-77
2021/10/23 06:35:24;;;;;;;26.33;16.03;;;;;;;5.73;82.91;101190.66;5081252;28;20490;-77
2021/10/23 06:37:51;;;;;;;29.93;19.10;;;;;;;6.01;82.76;101197.09;5082631;28;20444;-78
2021/10/23 06:40:20;;;;;;;25.67;18.53;;;;;;;6.11;82.36;101197.41;5082625;28;20464;-78
2021/10/23 06:42:47;;;;;;;26.50;18.63;;;;;;;6.29;82.04;101206.13;5073802;28;20476;-77
2021/10/23 06:45:15;;;;;;;30.27;18.33;;;;;;;6.21;82.37;101210.09;5061697;28;20874;-77
2021/10/23 06:47:43;;;;;;;29.00;18.10;;;;;;;6.44;82.36;101217.63;5066665;28;20479;-77
2021/10/23 06:50:12;;;;;;;32.63;20.10;;;;;;;6.68;81.77;101221.50;5062526;28;20481;-78
2021/10/23 06:52:38;;;;;;;30.57;21.27;;;;;;;6.76;81.77;101232.53;5064174;28;20509;-78
2021/10/23 06:55:06;;;;;;;34.00;19.37;;;;;;;6.85;81.23;101232.94;5074256;28;20447;-78
2021/10/23 06:57:32;;;;;;;31.93;20.03;;;;;;;7.06;80.51;101247.56;5078128;28;20441;-78
2021/10/23 06:59:59;;;;;;;28.23;19.07;;;;;;;7.27;79.63;101249.88;5062060;28;20490;-78
2021/10/23 07:02:26;;;;;;;33.73;19.20;;;;;;;7.64;78.70;101260.91;5062346;28;20484;-78
2021/10/23 07:04:54;;;;;;;29.23;20.07;;;;;;;7.53;78.12;101254.44;5068189;28;20505;-78
2021/10/23 07:07:21;;;;;;;25.00;17.80;;;;;;;7.53;78.44;101259.75;5062494;28;20531;-78
2021/10/23 07:09:48;;;;;;;28.70;18.00;;;;;;;7.84;77.63;101262.28;5062627;28;20437;-77
2021/10/23 07:12:15;;;;;;;25.13;16.43;;;;;;;7.66;77.34;101257.16;5061381;28;20505;-77
2021/10/23 07:14:41;;;;;;;31.70;16.90;;;;;;;7.70;77.38;101266.66;5067857;28;20887;-78
2021/10/23 07:17:09;;;;;;;25.57;16.33;;;;;;;7.83;77.82;101271.19;5059317;28;20485;-87
2021/10/23 07:19:36;;;;;;;26.57;16.43;;;;;;;7.98;77.20;101280.88;5063413;28;20476;-87
2021/10/23 07:22:04;;;;;;;25.10;14.80;;;;;;;7.95;76.68;101281.09;5061878;28;20523;-78
2021/10/23 07:24:30;;;;;;;22.67;14.33;;;;;;;7.90;77.10;101286.69;5067834;28;20484;-78
2021/10/23 07:26:57;;;;;;;21.53;15.53;;;;;;;8.01;76.70;101291.34;5057570;28;20548;-79
2021/10/23 07:29:24;;;;;;;17.40;14.00;;;;;;;8.16;75.71;101294.84;5054209;28;20552;-79
2021/10/23 07:31:50;;;;;;;22.53;13.80;;;;;;;8.15;76.13;101301.09;5049874;28;20918;-79
2021/10/23 07:34:17;;;;;;;21.37;14.43;;;;;;;7.85;76.95;101307.44;5064901;28;20483;-77
2021/10/23 07:36:46;;;;;;;23.30;13.77;;;;;;;7.84;76.66;101304.88;5048351;28;21070;-79
2021/10/23 07:39:14;;;;;;;18.37;14.07;;;;;;;7.91;76.61;101311.50;5049339;28;20465;-79
2021/10/23 07:41:41;;;;;;;20.87;13.77;;;;;;;7.81;76.79;101316.59;5040251;28;20519;-79
2021/10/23 07:44:08;;;;;;;23.47;12.90;;;;;;;7.83;77.29;101325.31;5044903;28;20494;-77
2021/10/23 07:46:34;;;;;;;17.40;12.20;;;;;;;7.48;77.46;101328.38;5046673;28;20476;-76
2021/10/23 07:49:01;;;;;;;20.93;12.30;;;;;;;7.59;78.01;101332.19;5052389;28;20450;-77
2021/10/23 07:51:28;;;;;;;17.43;12.20;;;;;;;7.75;76.96;101345.38;5054965;28;20504;-77
2021/10/23 07:53:55;;;;;;;21.10;11.33;;;;;;;8.03;77.89;101348.00;5056777;28;20448;-77
2021/10/23 07:56:23;;;;;;;21.97;12.47;;;;;;;8.14;76.39;101349.16;5070143;28;20607;-76
2021/10/23 07:58:50;;;;;;;18.00;12.77;;;;;;;8.21;75.47;101351.34;5066208;28;20495;-76
2021/10/23 08:01:17;;;;;;;16.20;10.97;;;;;;;8.25;74.98;101358.16;5064700;28;20507;-76
2021/10/23 08:03:44;;;;;;;13.57;11.27;;;;;;;8.55;75.88;101356.31;5054132;28;20493;-76
2021/10/23 08:06:10;;;;;;;20.80;13.27;;;;;;;8.47;74.94;101365.66;5045794;28;20480;-76
2021/10/23 08:08:37;;;;;;;19.90;11.80;;;;;;;8.48;74.58;101369.19;5064817;28;20956;-76
2021/10/23 08:11:04;;;;;;;16.70;12.53;;;;;;;8.14;75.10;101371.31;5064317;28;20560;-76
2021/10/23 08:13:33;;;;;;;14.17;10.43;;;;;;;8.33;74.93;101370.97;5077495;28;20476;-75
2021/10/23 08:16:00;;;;;;;16.77;11.23;;;;;;;8.44;74.57;101373.84;5076144;28;20483;-76
2021/10/23 08:18:27;;;;;;;13.43;10.27;;;;;;;8.60;74.13;101380.88;5071930;28;20445;-76
2021/10/23 08:20:54;;;;;;;15.70;11.80;;;;;;;8.35;75.15;101378.88;5058599;28;20500;-76
2021/10/23 08:23:21;;;;;;;17.30;11.70;;;;;;;8.53;74.02;101380.41;5071225;28;20480;-76
2021/10/23 08:25:47;;;;;;;13.40;9.80;;;;;;;8.64;73.93;101388.53;5065462;28;20806;-75
2021/10/23 08:28:14;;;;;;;16.50;10.10;;;;;;;8.66;73.66;101388.44;5066089;28;20488;-76
2021/10/23 08:30:42;;;;;;;19.47;10.43;;;;;;;9.02;73.07;101386.97;5060119;28;20457;-76
2021/10/23 08:33:09;;;;;;;14.80;9.70;;;;;;;8.99;71.83;101392.50;5057471;28;20472;-76
2021/10/23 08:35:36;;;;;;;17.33;9.53;;;;;;;9.34;72.16;101384.81;5069051;28;20472;-76
2021/10/23 08:38:03;;;;;;;14.70;9.33;;;;;;;9.04;71.92;101388.59;5046060;28;20468;-75
2021/10/23 08:40:30;;;;;;;13.13;8.97;;;;;;;9.09;71.70;101385.59;5061427;28;20483;-76
2021/10/23 08:42:57;;;;;;;20.37;10.80;;;;;;;9.00;72.40;101388.91;5083526;28;20463;-77
2021/10/23 08:45:24;;;;;;;14.30;9.03;;;;;;;9.32;71.83;101393.88;5065622;28;20448;-78
2021/10/23 08:47:52;;;;;;;12.63;8.70;;;;;;;9.21;71.90;101395.44;5085882;28;20429;-78
2021/10/23 08:50:20;;;;;;;11.73;8.60;;;;;;;9.46;71.33;101396.47;5068991;28;20475;-78
2021/10/23 08:52:48;;;;;;;15.10;9.90;;;;;;;9.30;71.24;101393.97;5054755;28;20449;-78
2021/10/23 08:55:15;;;;;;;17.80;12.53;;;;;;;9.67;70.56;101396.81;5051928;28;20518;-78
2021/10/23 08:57:42;;;;;;;207.67;118.77;;;;;;;9.68;69.35;101398.50;5054350;28;20445;-78
2021/10/23 09:00:10;;;;;;;54.97;36.60;;;;;;;10.26;68.35;101408.69;5061840;28;20486;-79
2021/10/23 09:02:37;;;;;;;16.77;12.30;;;;;;;10.59;67.68;101404.56;5057844;28;20520;-77
2021/10/23 09:05:06;;;;;;;13.37;9.37;;;;;;;9.82;68.74;101412.72;5061152;28;20475;-77
2021/10/23 09:07:33;;;;;;;14.30;8.63;;;;;;;10.17;68.68;101419.09;5057214;28;20464;-78
2021/10/23 09:10:01;;;;;;;19.60;10.20;;;;;;;10.12;68.11;101415.03;5062640;28;20477;-78
2021/10/23 09:12:29;;;;;;;13.20;8.37;;;;;;;10.35;66.94;101424.97;5062380;28;20587;-78
2021/10/23 09:15:01;;;;;;;14.73;9.27;;;;;;;10.46;66.67;101424.19;5081405;28;20468;-78
2021/10/23 09:17:28;;;;;;;16.13;8.60;;;;;;;9.78;68.37;101433.44;5082423;28;20530;-78
2021/10/23 09:19:56;;;;;;;11.70;9.17;;;;;;;10.06;68.33;101426.16;5077099;28;20479;-77
2021/10/23 09:22:30;;;;;;;14.07;9.47;;;;;;;9.58;69.29;101429.47;5061359;28;20576;-78
2021/10/23 09:25:17;;;;;;;17.23;9.90;;;;;;;10.34;68.54;101431.25;5058313;28;20547;-78
2021/10/23 09:27:52;;;;;;;17.37;15.30;;;;;;;10.53;66.80;101440.66;5062657;28;20512;-77
2021/10/23 09:30:21;;;;;;;16.17;10.40;;;;;;;10.82;67.20;101438.53;5059843;28;20529;-77
2021/10/23 09:32:52;;;;;;;15.87;10.27;;;;;;;10.52;67.91;101439.81;5050008;28;20461;-78
2021/10/23 09:35:21;;;;;;;12.60;7.97;;;;;;;10.28;67.05;101439.72;5050236;28;20483;-77
2021/10/23 09:37:50;;;;;;;13.30;9.00;;;;;;;10.88;67.03;101448.78;5053680;28;20477;-77
2021/10/23 09:40:19;;;;;;;13.87;9.40;;;;;;;10.95;66.61;101459.88;5042947;28;20470;-77
2021/10/23 09:42:46;;;;;;;15.47;9.50;;;;;;;11.64;64.59;101457.34;5043677;28;20526;-77
2021/10/23 09:45:13;;;;;;;20.23;18.00;;;;;;;12.26;61.77;101460.63;5042471;28;20461;-77
2021/10/23 09:47:42;;;;;;;11.73;8.57;;;;;;;13.16;59.22;101457.78;5043666;28;20465;-77
2021/10/23 09:50:12;;;;;;;12.83;8.03;;;;;;;13.27;58.44;101466.78;5042869;28;20477;-77
2021/10/23 09:53:03;;;;;;;13.87;8.27;;;;;;;12.53;59.60;101462.06;5044059;28;20431;-77
2021/10/23 09:55:34;;;;;;;10.80;7.57;;;;;;;11.50;62.52;101457.56;5042259;28;20465;-77
2021/10/23 09:58:14;;;;;;;16.00;10.10;;;;;;;11.23;63.83;101463.16;5044104;28;20462;-77
2021/10/23 10:00:42;;;;;;;21.27;11.03;;;;;;;11.29;64.36;101463.56;5042002;28;20520;-77
2021/10/23 10:03:10;;;;;;;12.93;8.90;;;;;;;11.07;65.50;101466.97;5073702;28;20472;-76
2021/10/23 10:05:37;;;;;;;18.83;9.40;;;;;;;11.24;65.56;101475.59;5081787;28;21074;-77
2021/10/23 10:08:09;;;;;;;12.67;8.93;;;;;;;13.68;58.32;101473.19;5083029;28;20955;-77
2021/10/23 10:10:38;;;;;;;16.37;10.80;;;;;;;13.88;55.93;101463.44;5081545;28;20561;-77
2021/10/23 10:13:06;;;;;;;14.50;8.90;;;;;;;13.29;58.18;101468.34;5082901;28;20482;-77
2021/10/23 10:15:33;;;;;;;12.50;8.13;;;;;;;12.93;59.38;101469.56;5080895;28;20498;-77
2021/10/23 10:18:02;;;;;;;11.23;7.50;;;;;;;13.03;58.86;101472.34;5083285;28;20496;-77
2021/10/23 10:20:30;;;;;;;12.20;10.03;;;;;;;12.60;59.59;101471.34;5082375;28;20525;-77
2021/10/23 10:22:57;;;;;;;14.00;6.77;;;;;;;12.62;57.76;101477.44;5078047;28;20928;-77
2021/10/23 10:25:25;;;;;;;11.20;8.10;;;;;;;13.77;55.15;101467.06;5074711;28;20479;-77
2021/10/23 10:27:52;;;;;;;13.57;10.53;;;;;;;14.88;52.82;101460.03;5063918;28;20471;-77
2021/10/23 10:30:28;;;;;;;18.90;9.00;;;;;;;15.28;51.23;101469.00;5079369;28;20490;-77
2021/10/23 10:33:19;;;;;;;12.43;7.70;;;;;;;15.80;48.95;101465.00;5081756;28;20447;-78
2021/10/23 10:36:02;;;;;;;11.47;7.40;;;;;;;15.35;49.85;101465.59;5079458;28;20479;-78
2021/10/23 10:38:53;;;;;;;14.63;7.33;;;;;;;14.80;51.82;101468.78;5076485;28;20448;-77
2021/10/23 10:44:20;;;;;;;11.60;7.00;;;;;;;15.14;50.81;101465.75;5055104;28;21063;-78
2021/10/23 10:47:09;;;;;;;10.63;6.33;;;;;;;16.16;48.34;101467.03;5052771;28;20516;-78
2021/10/23 10:49:43;;;;;;;12.00;7.37;;;;;;;14.74;51.97;101465.78;5051776;28;20517;-77
2021/10/23 10:52:47;;;;;;;9.10;6.07;;;;;;;14.91;52.59;101475.03;5066547;28;21343;-77
2021/10/23 10:55:16;;;;;;;15.63;7.17;;;;;;;14.42;52.48;101469.50;5077171;28;20486;-77
2021/10/23 10:57:58;;;;;;;12.43;6.17;;;;;;;14.28;52.77;101470.72;5062612;28;20425;-78
2021/10/23 11:01:12;;;;;;;11.13;6.50;;;;;;;14.64;52.18;101471.16;5060727;28;21519;-78
2021/10/23 11:03:43;;;;;;;14.97;5.00;;;;;;;14.58;52.42;101467.19;5068336;28;20488;-78
2021/10/23 11:06:49;;;;;;;13.90;6.80;;;;;;;14.47;52.88;101468.09;5067662;28;20480;-78
2021/10/23 11:09:29;;;;;;;11.60;5.80;;;;;;;14.73;52.71;101462.25;5043390;28;20458;-78
2021/10/23 11:12:15;;;;;;;13.33;6.10;;;;;;;14.34;53.36;101463.94;5057357;28;20920;-81
2021/10/23 11:14:43;;;;;;;9.47;5.47;;;;;;;14.15;52.67;101459.31;5052665;28;20489;-78
2021/10/23 11:17:18;;;;;;;19.70;6.20;;;;;;;13.55;55.57;101452.75;5068328;28;20562;-79
2021/10/23 11:19:47;;;;;;;12.17;5.83;;;;;;;14.26;54.59;101446.63;5063818;28;20457;-79
2021/10/23 11:22:16;;;;;;;9.70;5.57;;;;;;;14.20;54.29;101444.50;5078357;28;20498;-79
2021/10/23 11:24:44;;;;;;;10.13;6.00;;;;;;;14.58;52.72;101453.75;5077856;28;20511;-79
2021/10/23 11:27:23;;;;;;;11.90;6.33;;;;;;;14.23;53.73;101451.44;5064356;28;20475;-80
2021/10/23 11:30:09;;;;;;;9.30;4.93;;;;;;;14.66;52.67;101459.25;5076278;28;20499;-79